createdAt,value
2019-04-16T00:00:33.228Z,10.40
2019-04-16T00:03:01.887Z,10.40
2019-04-16T00:05:41.276Z,10.40
2019-04-16T00:08:26.717Z,10.40
2019-04-16T00:10:49.775Z,10.30
2019-04-16T00:13:23.101Z,10.30
2019-04-16T00:15:51.887Z,10.30
2019-04-16T00:18:20.662Z,10.30
2019-04-16T00:20:54.030Z,10.20
2019-04-16T00:23:33.589Z,10.20
2019-04-16T00:26:03.456Z,10.10
2019-04-16T00:28:32.154Z,10.10
2019-04-16T00:31:01.031Z,10.10
2019-04-16T00:33:29.725Z,10.00
2019-04-16T00:35:59.392Z,10.00
2019-04-16T00:38:40.056Z,10.00
2019-04-16T00:41:00.759Z,9.90
2019-04-16T00:43:28.792Z,9.90
2019-04-16T00:45:57.577Z,9.90
2019-04-16T00:48:26.137Z,9.90
2019-04-16T00:50:55.909Z,9.90
2019-04-16T00:53:24.677Z,9.80
2019-04-16T00:55:53.337Z,9.80
2019-04-16T00:58:22.032Z,9.80
2019-04-16T01:00:50.702Z,9.80
2019-04-16T01:03:19.742Z,9.80
2019-04-16T01:05:48.602Z,9.70
2019-04-16T01:08:17.316Z,9.70
2019-04-16T01:10:46.045Z,9.60
2019-04-16T01:13:14.761Z,9.60
2019-04-16T01:15:43.506Z,9.60
2019-04-16T01:18:12.086Z,9.50
2019-04-16T01:20:43.263Z,9.50
2019-04-16T01:23:10.991Z,9.50
2019-04-16T01:25:39.659Z,9.40
2019-04-16T01:28:12.750Z,9.40
2019-04-16T01:30:43.034Z,9.40
2019-04-16T01:33:14.630Z,9.40
2019-04-16T01:35:51.230Z,9.30
2019-04-16T01:38:28.053Z,9.30
2019-04-16T01:41:03.524Z,9.30
2019-04-16T01:43:32.214Z,9.20
2019-04-16T01:46:02.201Z,9.20
2019-04-16T01:48:31.455Z,9.10
2019-04-16T01:51:00.053Z,9.10
2019-04-16T01:53:28.683Z,9.10
2019-04-16T01:55:58.402Z,9.10
2019-04-16T01:58:27.450Z,9.00
2019-04-16T02:00:56.138Z,9.00
2019-04-16T02:03:24.854Z,9.00
2019-04-16T02:05:54.857Z,8.90
2019-04-16T02:08:24.047Z,8.90
2019-04-16T02:10:52.705Z,8.90
2019-04-16T02:13:21.336Z,8.90
2019-04-16T02:15:50.579Z,8.90
2019-04-16T02:18:20.313Z,8.90
2019-04-16T02:20:49.097Z,8.80
2019-04-16T02:23:17.741Z,8.80
2019-04-16T02:25:48.460Z,8.80
2019-04-16T02:28:16.765Z,8.80
2019-04-16T02:30:45.362Z,8.80
2019-04-16T02:33:14.017Z,8.70
2019-04-16T02:35:42.676Z,8.70
2019-04-16T02:38:13.627Z,8.70
2019-04-16T02:40:42.089Z,8.70
2019-04-16T02:43:10.658Z,8.60
2019-04-16T02:45:39.331Z,8.60
2019-04-16T02:48:15.263Z,8.60
2019-04-16T02:50:43.115Z,8.60
2019-04-16T02:53:30.729Z,8.50
2019-04-16T02:56:01.138Z,8.50
2019-04-16T02:58:34.318Z,8.50
2019-04-16T03:01:15.412Z,8.50
2019-04-16T03:03:45.730Z,8.50
2019-04-16T03:06:14.546Z,8.50
2019-04-16T03:08:43.566Z,8.50
2019-04-16T03:11:13.790Z,8.50
2019-04-16T03:13:42.597Z,8.40
2019-04-16T03:16:15.962Z,8.40
2019-04-16T03:18:47.504Z,8.40
2019-04-16T03:21:16.685Z,8.40
2019-04-16T03:23:45.412Z,8.30
2019-04-16T03:26:17.512Z,8.30
2019-04-16T03:28:44.744Z,8.30
2019-04-16T03:31:19.418Z,8.30
2019-04-16T03:33:50.403Z,8.20
2019-04-16T03:36:14.517Z,8.20
2019-04-16T03:38:43.206Z,8.20
2019-04-16T03:41:11.822Z,8.20
2019-04-16T03:43:40.468Z,8.20
2019-04-16T03:46:12.119Z,8.10
2019-04-16T03:48:39.485Z,8.10
2019-04-16T03:51:08.070Z,8.10
2019-04-16T03:53:37.178Z,8.10
2019-04-16T03:56:05.826Z,8.10
2019-04-16T03:58:35.546Z,8.00
2019-04-16T04:01:05.079Z,8.00
2019-04-16T04:03:33.709Z,8.00
2019-04-16T04:06:03.601Z,8.00
2019-04-16T04:08:32.721Z,7.90
2019-04-16T04:11:01.362Z,7.90
2019-04-16T04:13:30.090Z,7.90
2019-04-16T04:16:01.435Z,7.90
2019-04-16T04:18:29.190Z,7.90
2019-04-16T04:20:57.875Z,7.90
2019-04-16T04:23:28.695Z,7.90
2019-04-16T04:25:56.746Z,7.90
2019-04-16T04:28:25.321Z,7.90
2019-04-16T04:30:53.895Z,7.80
2019-04-16T04:33:41.597Z,7.80
2019-04-16T04:36:10.547Z,7.80
2019-04-16T04:38:39.478Z,7.80
2019-04-16T04:41:08.319Z,7.80
2019-04-16T04:43:37.061Z,7.80
2019-04-16T04:46:05.881Z,7.80
2019-04-16T04:48:34.639Z,7.80
2019-04-16T04:51:06.930Z,7.80
2019-04-16T04:53:33.832Z,7.80
2019-04-16T04:56:02.550Z,7.80
2019-04-16T04:58:34.198Z,7.70
2019-04-16T05:01:02.291Z,7.70
2019-04-16T05:03:48.246Z,7.70
2019-04-16T05:06:18.545Z,7.70
2019-04-16T05:08:47.310Z,7.70
2019-04-16T05:11:16.952Z,7.70
2019-04-16T05:13:45.861Z,7.70
2019-04-16T05:16:14.537Z,7.70
2019-04-16T05:18:43.280Z,7.70
2019-04-16T05:21:11.942Z,7.70
2019-04-16T05:23:40.787Z,7.70
2019-04-16T05:26:09.961Z,7.80
2019-04-16T05:28:44.518Z,7.80
2019-04-16T05:31:09.177Z,7.70
2019-04-16T05:33:38.188Z,7.80
2019-04-16T05:36:07.092Z,7.80
2019-04-16T05:38:35.724Z,7.80
2019-04-16T05:41:13.078Z,7.90
2019-04-16T05:43:34.768Z,7.90
2019-04-16T05:46:08.301Z,7.90
2019-04-16T05:48:33.780Z,8.00
2019-04-16T05:51:02.444Z,8.00
2019-04-16T05:53:31.086Z,8.10
2019-04-16T05:56:01.335Z,8.10
2019-04-16T05:58:30.747Z,8.20
2019-04-16T06:01:18.857Z,8.20
2019-04-16T06:03:47.498Z,8.30
2019-04-16T06:06:16.188Z,8.30
2019-04-16T06:08:44.830Z,8.30
2019-04-16T06:11:26.565Z,8.30
2019-04-16T06:13:45.324Z,8.40
2019-04-16T06:16:33.980Z,8.40
2019-04-16T06:19:11.428Z,8.50
2019-04-16T06:21:42.040Z,8.50
2019-04-16T06:24:29.045Z,8.60
2019-04-16T06:27:08.596Z,8.60
2019-04-16T06:30:01.409Z,8.60
2019-04-16T06:32:36.495Z,8.70
2019-04-16T06:35:16.072Z,8.70
2019-04-16T06:37:51.983Z,8.80
2019-04-16T06:40:38.793Z,8.90
2019-04-16T06:43:12.024Z,9.00
2019-04-16T06:45:45.342Z,9.10
2019-04-16T06:48:24.672Z,9.10
2019-04-16T06:50:55.337Z,9.20
2019-04-16T06:53:25.628Z,9.30
2019-04-16T06:55:56.035Z,9.40
2019-04-16T06:58:27.907Z,9.40
2019-04-16T07:00:58.193Z,9.50
2019-04-16T07:03:28.522Z,9.60
2019-04-16T07:06:04.841Z,9.70
2019-04-16T07:08:51.276Z,9.80
2019-04-16T07:11:21.496Z,9.80
2019-04-16T07:13:50.082Z,9.90
2019-04-16T07:16:18.691Z,10.00
2019-04-16T07:18:47.258Z,10.10
2019-04-16T07:21:17.549Z,10.20
2019-04-16T07:23:47.087Z,10.30
2019-04-16T07:26:15.893Z,10.40
2019-04-16T07:28:58.525Z,10.50
2019-04-16T07:31:33.415Z,10.60
2019-04-16T07:33:58.994Z,10.70
2019-04-16T07:36:41.360Z,10.80
2019-04-16T07:39:28.285Z,10.90
2019-04-16T07:42:10.278Z,11.00
2019-04-16T07:44:36.459Z,11.10
2019-04-16T07:47:09.777Z,11.20
2019-04-16T07:49:40.427Z,11.30
2019-04-16T07:52:13.552Z,11.50
2019-04-16T07:54:59.913Z,11.60
2019-04-16T07:57:28.980Z,11.70
2019-04-16T07:59:57.667Z,11.80
2019-04-16T08:02:26.344Z,11.90
2019-04-16T08:04:54.960Z,12.10
2019-04-16T08:07:23.615Z,12.20
2019-04-16T08:09:52.261Z,12.40
2019-04-16T08:12:29.782Z,12.40
2019-04-16T08:14:51.239Z,12.60
2019-04-16T08:17:19.891Z,12.70
2019-04-16T08:19:49.367Z,12.80
2019-04-16T08:22:18.592Z,13.00
2019-04-16T08:24:48.838Z,13.10
2019-04-16T08:27:19.074Z,13.20
2019-04-16T08:29:47.894Z,13.30
2019-04-16T08:32:17.048Z,13.40
2019-04-16T08:34:45.765Z,13.60
2019-04-16T08:37:14.433Z,13.70
2019-04-16T08:39:43.093Z,13.80
2019-04-16T08:42:11.820Z,13.90
2019-04-16T08:44:40.493Z,14.10
2019-04-16T08:47:12.138Z,14.20
2019-04-16T08:49:39.539Z,14.30
2019-04-16T08:52:10.175Z,14.40
2019-04-16T08:54:38.613Z,14.50
2019-04-16T08:57:07.291Z,14.60
2019-04-16T08:59:35.955Z,14.80
2019-04-16T09:02:04.721Z,14.80
2019-04-16T09:04:34.641Z,15.00
2019-04-16T09:07:11.092Z,15.10
2019-04-16T09:09:38.439Z,15.20
2019-04-16T09:12:09.375Z,15.30
2019-04-16T09:14:40.097Z,15.40
2019-04-16T09:17:10.515Z,15.50
2019-04-16T09:19:41.087Z,15.60
2019-04-16T09:22:15.770Z,15.70
2019-04-16T09:24:42.016Z,15.80
2019-04-16T09:27:15.064Z,15.90
2019-04-16T09:29:51.328Z,16.10
2019-04-16T09:32:37.779Z,16.20
2019-04-16T09:35:20.038Z,16.30
2019-04-16T09:37:50.161Z,16.40
2019-04-16T09:40:36.806Z,16.50
2019-04-16T09:43:16.641Z,16.70
2019-04-16T09:45:38.077Z,16.80
2019-04-16T09:48:06.749Z,16.90
2019-04-16T09:50:35.666Z,17.10
2019-04-16T09:53:04.382Z,17.20
2019-04-16T09:55:33.062Z,17.30
2019-04-16T09:58:06.080Z,17.40
2019-04-16T10:00:38.758Z,17.50
2019-04-16T10:03:11.551Z,17.70
2019-04-16T10:05:40.297Z,17.80
2019-04-16T10:08:09.649Z,17.90
2019-04-16T10:10:39.484Z,18.00
2019-04-16T10:13:08.761Z,18.10
2019-04-16T10:15:37.602Z,18.30
2019-04-16T10:18:06.328Z,18.40
2019-04-16T10:20:34.998Z,18.50
2019-04-16T10:23:05.711Z,18.50
2019-04-16T10:25:34.694Z,18.50
2019-04-16T10:28:05.669Z,18.60
2019-04-16T10:30:39.540Z,18.70
2019-04-16T10:33:08.364Z,18.80
2019-04-16T10:35:37.242Z,18.90
2019-04-16T10:38:07.875Z,18.90
2019-04-16T10:40:41.286Z,19.00
2019-04-16T10:43:11.564Z,19.00
2019-04-16T10:45:53.473Z,19.10
2019-04-16T10:48:26.442Z,19.20
2019-04-16T10:51:15.502Z,19.30
2019-04-16T10:53:57.266Z,19.20
2019-04-16T10:56:44.220Z,19.30
2019-04-16T10:59:30.748Z,19.30
2019-04-16T11:02:13.535Z,19.40
2019-04-16T11:04:45.411Z,19.40
2019-04-16T11:07:15.673Z,19.40
2019-04-16T11:09:44.339Z,19.50
2019-04-16T11:12:19.656Z,19.60
2019-04-16T11:14:46.272Z,19.60
2019-04-16T11:17:15.449Z,19.70
2019-04-16T11:19:44.193Z,19.80
2019-04-16T11:22:12.955Z,19.90
2019-04-16T11:24:43.458Z,20.00
2019-04-16T11:27:12.028Z,20.10
2019-04-16T11:29:41.927Z,20.20
2019-04-16T11:32:12.706Z,20.40
2019-04-16T11:34:41.334Z,20.60
2019-04-16T11:37:09.916Z,20.70
2019-04-16T11:39:38.567Z,20.80
2019-04-16T11:42:08.734Z,21.00
2019-04-16T11:44:37.460Z,21.00
2019-04-16T11:47:07.285Z,21.10
2019-04-16T11:49:35.890Z,21.20
2019-04-16T11:52:04.805Z,21.30
2019-04-16T11:54:33.736Z,21.40
2019-04-16T11:57:02.693Z,21.50
2019-04-16T11:59:31.530Z,21.60
2019-04-16T12:02:01.831Z,21.70
2019-04-16T12:04:48.508Z,21.80
2019-04-16T12:07:36.928Z,21.90
2019-04-16T12:10:26.787Z,22.00
2019-04-16T12:13:03.864Z,22.20
2019-04-16T12:15:43.578Z,22.20
2019-04-16T12:18:22.842Z,22.20
2019-04-16T12:20:55.895Z,22.40
2019-04-16T12:23:26.187Z,22.50
2019-04-16T12:26:02.691Z,22.60
2019-04-16T12:28:33.335Z,22.70
2019-04-16T12:31:03.911Z,22.70
2019-04-16T12:33:36.973Z,22.70
2019-04-16T12:36:13.239Z,22.80
2019-04-16T12:38:42.965Z,22.80
2019-04-16T12:41:31.578Z,22.80
2019-04-16T12:44:23.939Z,22.90
2019-04-16T12:46:51.974Z,22.90
2019-04-16T12:49:38.635Z,22.90
2019-04-16T12:52:11.918Z,22.90
2019-04-16T12:54:41.009Z,22.90
2019-04-16T12:57:14.954Z,22.90
2019-04-16T12:59:43.180Z,22.90
2019-04-16T13:02:13.915Z,22.90
2019-04-16T13:04:59.790Z,22.80
2019-04-16T13:07:34.438Z,22.80
2019-04-16T13:10:08.115Z,22.80
2019-04-16T13:12:38.430Z,22.80
2019-04-16T13:15:25.895Z,22.80
2019-04-16T13:18:02.103Z,22.80
2019-04-16T13:20:35.135Z,22.90
2019-04-16T13:23:11.110Z,22.90
2019-04-16T13:25:57.712Z,23.00
2019-04-16T13:28:26.773Z,23.10
2019-04-16T13:30:55.436Z,23.20
2019-04-16T13:33:24.160Z,23.20
2019-04-16T13:35:52.837Z,23.20
2019-04-16T13:38:23.127Z,23.20
2019-04-16T13:40:53.171Z,23.30
2019-04-16T13:43:26.294Z,23.30
2019-04-16T13:45:57.931Z,23.40
2019-04-16T13:48:30.893Z,23.30
2019-04-16T13:51:03.856Z,23.30
2019-04-16T13:53:39.959Z,23.30
2019-04-16T13:56:28.446Z,23.30
2019-04-16T13:59:11.135Z,23.20
2019-04-16T14:01:45.203Z,23.30
2019-04-16T14:04:13.516Z,23.20
2019-04-16T14:06:45.909Z,23.20
2019-04-16T14:09:13.263Z,23.30
2019-04-16T14:11:42.437Z,23.40
2019-04-16T14:14:11.126Z,23.40
2019-04-16T14:16:40.874Z,23.50
2019-04-16T14:19:10.526Z,23.60
2019-04-16T14:21:39.137Z,23.60
2019-04-16T14:24:11.586Z,23.70
2019-04-16T14:26:38.141Z,23.70
2019-04-16T14:29:07.744Z,23.80
2019-04-16T14:31:36.575Z,24.00
2019-04-16T14:34:07.168Z,24.00
2019-04-16T14:36:35.926Z,24.10
2019-04-16T14:39:14.593Z,24.10
2019-04-16T14:41:48.756Z,24.10
2019-04-16T14:44:15.792Z,24.10
2019-04-16T14:46:44.603Z,24.10
2019-04-16T14:49:15.190Z,24.00
2019-04-16T14:51:43.612Z,23.90
2019-04-16T14:54:16.653Z,23.90
2019-04-16T14:56:55.794Z,23.80
2019-04-16T14:59:40.766Z,23.80
2019-04-16T15:02:19.622Z,23.70
2019-04-16T15:05:03.488Z,23.60
2019-04-16T15:07:46.030Z,23.50
2019-04-16T15:10:28.268Z,23.40
2019-04-16T15:13:04.139Z,23.30
2019-04-16T15:15:34.437Z,23.20
2019-04-16T15:18:07.937Z,23.10
2019-04-16T15:20:54.906Z,22.90
2019-04-16T15:23:34.082Z,22.70
2019-04-16T15:26:16.804Z,22.40
2019-04-16T15:28:56.203Z,22.30
2019-04-16T15:31:41.175Z,22.10
2019-04-16T15:34:14.025Z,22.00
2019-04-16T15:36:44.315Z,21.90
2019-04-16T15:39:14.920Z,21.80
2019-04-16T15:41:46.290Z,21.80
2019-04-16T15:44:31.717Z,21.60
2019-04-16T15:47:16.590Z,21.60
2019-04-16T15:49:55.825Z,21.50
2019-04-16T15:52:28.699Z,21.30
2019-04-16T15:55:02.062Z,21.40
2019-04-16T15:57:48.344Z,21.30
2019-04-16T16:00:28.198Z,21.30
2019-04-16T16:02:58.521Z,21.20
2019-04-16T16:05:37.343Z,21.20
2019-04-16T16:08:10.600Z,21.20
2019-04-16T16:10:45.146Z,21.30
2019-04-16T16:13:11.348Z,21.30
2019-04-16T16:15:41.100Z,21.30
2019-04-16T16:18:09.938Z,21.20
2019-04-16T16:20:38.502Z,21.20
2019-04-16T16:23:08.517Z,21.10
2019-04-16T16:25:41.084Z,21.00
2019-04-16T16:28:08.099Z,21.00
2019-04-16T16:30:36.896Z,20.90
2019-04-16T16:33:05.581Z,20.80
2019-04-16T16:35:35.025Z,20.60
2019-04-16T16:38:04.204Z,20.50
2019-04-16T16:40:32.891Z,20.40
2019-04-16T16:43:06.419Z,20.40
2019-04-16T16:45:51.734Z,20.30
2019-04-16T16:48:22.089Z,20.20
2019-04-16T16:50:51.778Z,20.10
2019-04-16T16:53:25.320Z,20.00
2019-04-16T16:55:55.452Z,19.90
2019-04-16T16:58:25.802Z,19.70
2019-04-16T17:01:02.283Z,19.60
2019-04-16T17:03:38.043Z,19.40
2019-04-16T17:06:08.369Z,19.30
2019-04-16T17:08:37.104Z,19.20
2019-04-16T17:11:16.127Z,19.20
2019-04-16T17:13:36.063Z,19.10
2019-04-16T17:16:04.796Z,19.00
2019-04-16T17:18:33.564Z,18.90
2019-04-16T17:21:02.758Z,18.90
2019-04-16T17:23:31.369Z,18.80
2019-04-16T17:25:59.964Z,18.70
2019-04-16T17:28:28.646Z,18.60
2019-04-16T17:30:57.404Z,18.50
2019-04-16T17:33:26.126Z,18.40
2019-04-16T17:35:54.839Z,18.40
2019-04-16T17:38:23.428Z,18.30
2019-04-16T17:40:57.985Z,18.30
2019-04-16T17:43:38.572Z,18.20
2019-04-16T17:46:08.898Z,18.10
2019-04-16T17:48:39.189Z,18.00
2019-04-16T17:51:26.102Z,17.90
2019-04-16T17:54:08.579Z,17.80
2019-04-16T17:56:56.417Z,17.80
2019-04-16T17:59:30.222Z,17.70
2019-04-16T18:02:16.782Z,17.60
2019-04-16T18:05:02.124Z,17.60
2019-04-16T18:07:38.489Z,17.50
2019-04-16T18:10:18.894Z,17.40
2019-04-16T18:13:00.910Z,17.40
2019-04-16T18:15:46.264Z,17.30
2019-04-16T18:18:25.799Z,17.30
2019-04-16T18:21:14.204Z,17.20
2019-04-16T18:23:53.258Z,17.10
2019-04-16T18:26:39.649Z,17.10
2019-04-16T18:29:12.992Z,17.00
2019-04-16T18:31:43.289Z,16.90
2019-04-16T18:34:30.054Z,16.90
2019-04-16T18:37:16.674Z,16.80
2019-04-16T18:40:05.912Z,16.70
2019-04-16T18:42:35.720Z,16.70
2019-04-16T18:45:22.738Z,16.60
2019-04-16T18:48:02.696Z,16.60
2019-04-16T18:50:27.977Z,16.50
2019-04-16T18:52:54.194Z,16.40
2019-04-16T18:55:22.803Z,16.30
2019-04-16T18:57:52.348Z,16.30
2019-04-16T19:00:31.774Z,16.20
2019-04-16T19:02:59.146Z,16.20
2019-04-16T19:05:27.800Z,16.10
2019-04-16T19:08:00.211Z,16.00
2019-04-16T19:10:26.892Z,16.00
2019-04-16T19:12:55.907Z,15.90
2019-04-16T19:15:24.627Z,15.90
2019-04-16T19:17:53.224Z,15.80
2019-04-16T19:20:21.867Z,15.80
2019-04-16T19:22:50.755Z,15.70
2019-04-16T19:25:19.547Z,15.70
2019-04-16T19:27:49.131Z,15.60
2019-04-16T19:30:17.949Z,15.50
2019-04-16T19:32:46.683Z,15.50
2019-04-16T19:35:18.227Z,15.40
2019-04-16T19:37:45.975Z,15.30
2019-04-16T19:40:16.062Z,15.20
2019-04-16T19:42:44.948Z,15.20
2019-04-16T19:45:13.703Z,15.20
2019-04-16T19:47:42.389Z,15.20
2019-04-16T19:50:11.155Z,15.10
2019-04-16T19:52:39.858Z,15.10
2019-04-16T19:55:12.057Z,15.10
2019-04-16T19:57:39.875Z,15.10
2019-04-16T20:00:08.696Z,15.10
2019-04-16T20:02:37.355Z,15.10
2019-04-16T20:05:06.766Z,15.00
2019-04-16T20:07:35.444Z,15.00
2019-04-16T20:10:05.589Z,15.00
2019-04-16T20:12:34.627Z,15.00
2019-04-16T20:15:07.973Z,15.00
2019-04-16T20:17:33.711Z,15.00
2019-04-16T20:20:02.716Z,15.00
2019-04-16T20:22:31.455Z,15.00
2019-04-16T20:25:00.219Z,15.00
2019-04-16T20:27:29.232Z,15.00
2019-04-16T20:29:57.944Z,15.00
2019-04-16T20:32:30.966Z,14.90
2019-04-16T20:34:58.686Z,14.90
2019-04-16T20:37:27.413Z,14.90
2019-04-16T20:39:56.109Z,14.90
2019-04-16T20:42:24.755Z,14.90
2019-04-16T20:44:53.376Z,14.90
2019-04-16T20:47:21.950Z,14.90
2019-04-16T20:49:50.969Z,14.80
2019-04-16T20:52:19.597Z,14.80
2019-04-16T20:54:49.890Z,14.80
2019-04-16T20:57:18.591Z,14.80
2019-04-16T20:59:47.639Z,14.80
2019-04-16T21:02:16.428Z,14.80
2019-04-16T21:04:45.431Z,14.80
2019-04-16T21:07:15.074Z,14.70
2019-04-16T21:09:44.141Z,14.70
2019-04-16T21:12:13.855Z,14.70
2019-04-16T21:14:42.603Z,14.70
2019-04-16T21:17:11.356Z,14.60
2019-04-16T21:19:47.812Z,14.60
2019-04-16T21:22:17.890Z,14.60
2019-04-16T21:24:48.132Z,14.60
2019-04-16T21:27:16.801Z,14.60
2019-04-16T21:29:45.757Z,14.50
2019-04-16T21:32:25.126Z,14.50
2019-04-16T21:34:58.682Z,14.50
2019-04-16T21:37:43.995Z,14.50
2019-04-16T21:40:13.015Z,14.50
2019-04-16T21:42:41.621Z,14.50
2019-04-16T21:45:10.406Z,14.40
2019-04-16T21:47:39.410Z,14.40
2019-04-16T21:50:08.139Z,14.40
2019-04-16T21:52:36.804Z,14.40
2019-04-16T21:55:07.312Z,14.40
2019-04-16T21:57:35.971Z,14.40
2019-04-16T22:00:08.790Z,14.40
2019-04-16T22:02:39.224Z,14.30
2019-04-16T22:05:10.164Z,14.40
2019-04-16T22:07:38.795Z,14.30
2019-04-16T22:10:09.011Z,14.30
2019-04-16T22:12:37.753Z,14.30
2019-04-16T22:15:07.401Z,14.20
2019-04-16T22:17:36.900Z,14.20
2019-04-16T22:20:07.249Z,14.20
2019-04-16T22:22:35.945Z,14.10
2019-04-16T22:25:06.266Z,14.10
2019-04-16T22:27:36.708Z,14.10
2019-04-16T22:30:07.967Z,14.10
2019-04-16T22:32:36.624Z,14.10
2019-04-16T22:35:06.547Z,14.00
2019-04-16T22:37:35.208Z,14.00
2019-04-16T22:40:23.601Z,14.00
2019-04-16T22:43:05.632Z,13.80
2019-04-16T22:45:34.577Z,13.70
2019-04-16T22:48:03.159Z,13.70
2019-04-16T22:50:34.660Z,13.60
2019-04-16T22:53:02.047Z,13.50
2019-04-16T22:55:30.649Z,13.40
2019-04-16T22:57:59.820Z,13.30
2019-04-16T23:00:34.168Z,13.20
2019-04-16T23:03:02.848Z,13.10
2019-04-16T23:05:31.995Z,13.00
2019-04-16T23:08:00.849Z,12.90
2019-04-16T23:10:29.686Z,12.80
2019-04-16T23:13:00.698Z,12.60
2019-04-16T23:15:29.134Z,12.60
2019-04-16T23:17:58.101Z,12.40
2019-04-16T23:20:29.676Z,12.40
2019-04-16T23:22:57.186Z,12.30
2019-04-16T23:25:27.433Z,12.20
2019-04-16T23:27:57.894Z,12.10
2019-04-16T23:30:26.707Z,12.10
2019-04-16T23:32:59.053Z,12.00
2019-04-16T23:35:26.168Z,11.90
2019-04-16T23:37:58.105Z,11.90
2019-04-16T23:40:25.507Z,11.80
2019-04-16T23:42:55.729Z,11.80
2019-04-16T23:45:31.167Z,11.80
2019-04-16T23:48:15.554Z,11.70
2019-04-16T23:50:47.663Z,11.70
2019-04-16T23:53:17.992Z,11.60
2019-04-16T23:55:57.281Z,11.50
2019-04-16T23:58:28.585Z,11.40
